sensor_id;sensor_type;location;lat;lon;timestamp;pressure;altitude;pressure_sealevel;temperature;humidity
10079;BME280;5078;42.544;22.966;2023-08-08T00:02:00;93770.81;;;15.98;100.00
10079;BME280;5078;42.544;22.966;2023-08-08T00:04:27;93764.50;;;15.59;100.00
10079;BME280;5078;42.544;22.966;2023-08-08T00:06:55;93772.53;;;15.39;100.00
10079;BME280;5078;42.544;22.966;2023-08-08T00:09:22;93764.31;;;15.61;100.00
10079;BME280;5078;42.544;22.966;2023-08-08T00:11:49;93780.72;;;15.91;100.00
10079;BME280;5078;42.544;22.966;2023-08-08T00:14:15;93782.94;;;16.01;100.00
10079;BME280;5078;42.544;22.966;2023-08-08T00:16:42;93777.03;;;15.85;100.00
10079;BME280;5078;42.544;22.966;2023-08-08T00:19:09;93783.00;;;15.74;100.00
10079;BME280;5078;42.544;22.966;2023-08-08T00:21:35;93784.81;;;15.93;100.00
10079;BME280;5078;42.544;22.966;2023-08-08T00:24:04;93794.31;;;15.83;100.00
10079;BME280;5078;42.544;22.966;2023-08-08T00:26:31;93796.38;;;15.81;100.00
10079;BME280;5078;42.544;22.966;2023-08-08T00:28:57;93807.41;;;16.04;100.00
10079;BME280;5078;42.544;22.966;2023-08-08T00:31:24;93800.38;;;16.10;100.00
10079;BME280;5078;42.544;22.966;2023-08-08T00:33:51;93805.63;;;15.71;100.00
10079;BME280;5078;42.544;22.966;2023-08-08T00:36:17;93821.25;;;15.48;100.00
10079;BME280;5078;42.544;22.966;2023-08-08T00:38:44;93815.31;;;15.72;100.00
10079;BME280;5078;42.544;22.966;2023-08-08T00:41:12;93820.19;;;15.62;100.00
10079;BME280;5078;42.544;22.966;2023-08-08T00:43:39;93808.81;;;16.07;100.00
10079;BME280;5078;42.544;22.966;2023-08-08T00:46:06;93806.50;;;16.24;100.00
10079;BME280;5078;42.544;22.966;2023-08-08T00:48:33;93808.25;;;15.85;100.00
10079;BME280;5078;42.544;22.966;2023-08-08T00:51:00;93813.81;;;15.90;100.00
10079;BME280;5078;42.544;22.966;2023-08-08T00:53:27;93816.88;;;16.00;100.00
10079;BME280;5078;42.544;22.966;2023-08-08T00:55:56;93819.81;;;15.85;100.00
10079;BME280;5078;42.544;22.966;2023-08-08T00:58:26;93810.56;;;15.68;100.00
10079;BME280;5078;42.544;22.966;2023-08-08T01:00:54;93796.16;;;15.62;100.00
10079;BME280;5078;42.544;22.966;2023-08-08T01:03:25;93813.03;;;15.63;100.00
10079;BME280;5078;42.544;22.966;2023-08-08T01:05:58;93819.44;;;15.35;100.00
10079;BME280;5078;42.544;22.966;2023-08-08T01:08:37;93814.06;;;15.55;100.00
10079;BME280;5078;42.544;22.966;2023-08-08T01:11:06;93811.16;;;15.63;100.00
10079;BME280;5078;42.544;22.966;2023-08-08T01:13:36;93810.97;;;15.58;100.00
10079;BME280;5078;42.544;22.966;2023-08-08T01:16:04;93807.88;;;15.81;100.00
10079;BME280;5078;42.544;22.966;2023-08-08T01:18:32;93809.31;;;15.84;100.00
10079;BME280;5078;42.544;22.966;2023-08-08T01:20:59;93818.38;;;15.63;100.00
10079;BME280;5078;42.544;22.966;2023-08-08T01:23:30;93813.44;;;15.73;100.00
10079;BME280;5078;42.544;22.966;2023-08-08T01:26:01;93811.78;;;15.52;100.00
10079;BME280;5078;42.544;22.966;2023-08-08T01:28:28;93821.03;;;15.29;100.00
10079;BME280;5078;42.544;22.966;2023-08-08T01:30:55;93817.75;;;15.34;100.00
10079;BME280;5078;42.544;22.966;2023-08-08T01:33:21;93822.28;;;15.14;100.00
10079;BME280;5078;42.544;22.966;2023-08-08T01:35:53;93836.69;;;15.46;100.00
10079;BME280;5078;42.544;22.966;2023-08-08T01:38:25;93843.66;;;15.53;100.00
10079;BME280;5078;42.544;22.966;2023-08-08T01:40:54;93840.56;;;15.50;100.00
10079;BME280;5078;42.544;22.966;2023-08-08T01:43:24;93830.91;;;15.29;100.00
10079;BME280;5078;42.544;22.966;2023-08-08T01:45:51;93837.69;;;15.25;100.00
10079;BME280;5078;42.544;22.966;2023-08-08T01:48:18;93838.09;;;15.08;100.00
10079;BME280;5078;42.544;22.966;2023-08-08T01:50:45;93845.28;;;15.01;100.00
10079;BME280;5078;42.544;22.966;2023-08-08T01:53:12;93848.59;;;15.23;100.00
10079;BME280;5078;42.544;22.966;2023-08-08T01:55:39;93845.94;;;15.43;100.00
10079;BME280;5078;42.544;22.966;2023-08-08T01:58:05;93851.47;;;15.28;100.00
10079;BME280;5078;42.544;22.966;2023-08-08T02:00:33;93835.63;;;14.94;100.00
10079;BME280;5078;42.544;22.966;2023-08-08T02:03:02;93856.75;;;14.88;100.00
10079;BME280;5078;42.544;22.966;2023-08-08T02:05:29;93861.28;;;14.95;100.00
10079;BME280;5078;42.544;22.966;2023-08-08T02:07:55;93850.88;;;15.33;100.00
10079;BME280;5078;42.544;22.966;2023-08-08T02:10:22;93849.81;;;15.27;100.00
10079;BME280;5078;42.544;22.966;2023-08-08T02:12:49;93845.28;;;15.01;100.00
10079;BME280;5078;42.544;22.966;2023-08-08T02:15:16;93843.81;;;14.79;100.00
10079;BME280;5078;42.544;22.966;2023-08-08T02:17:45;93845.13;;;14.48;100.00
10079;BME280;5078;42.544;22.966;2023-08-08T02:20:12;93839.44;;;14.58;100.00
10079;BME280;5078;42.544;22.966;2023-08-08T02:22:39;93850.00;;;14.93;100.00
10079;BME280;5078;42.544;22.966;2023-08-08T02:25:06;93839.06;;;14.87;100.00
10079;BME280;5078;42.544;22.966;2023-08-08T02:27:32;93851.06;;;15.18;100.00
10079;BME280;5078;42.544;22.966;2023-08-08T02:29:59;93852.84;;;14.78;100.00
10079;BME280;5078;42.544;22.966;2023-08-08T02:32:26;93852.63;;;14.79;100.00
10079;BME280;5078;42.544;22.966;2023-08-08T02:34:54;93858.38;;;14.89;100.00
10079;BME280;5078;42.544;22.966;2023-08-08T02:37:21;93860.41;;;14.74;100.00
10079;BME280;5078;42.544;22.966;2023-08-08T02:39:47;93859.06;;;14.50;100.00
10079;BME280;5078;42.544;22.966;2023-08-08T02:42:14;93858.97;;;14.72;100.00
10079;BME280;5078;42.544;22.966;2023-08-08T02:44:41;93870.72;;;14.91;100.00
10079;BME280;5078;42.544;22.966;2023-08-08T02:47:07;93873.63;;;14.96;100.00
10079;BME280;5078;42.544;22.966;2023-08-08T02:49:34;93884.47;;;14.87;100.00
10079;BME280;5078;42.544;22.966;2023-08-08T02:52:03;93882.22;;;14.91;100.00
10079;BME280;5078;42.544;22.966;2023-08-08T02:54:30;93889.25;;;15.19;100.00
10079;BME280;5078;42.544;22.966;2023-08-08T02:56:56;93891.28;;;15.03;100.00
10079;BME280;5078;42.544;22.966;2023-08-08T02:59:23;93892.94;;;15.11;100.00
10079;BME280;5078;42.544;22.966;2023-08-08T03:01:50;93891.75;;;15.20;100.00
10079;BME280;5078;42.544;22.966;2023-08-08T03:04:17;93892.50;;;14.94;100.00
10079;BME280;5078;42.544;22.966;2023-08-08T03:06:44;93896.59;;;14.90;100.00
10079;BME280;5078;42.544;22.966;2023-08-08T03:09:12;93897.44;;;15.04;100.00
10079;BME280;5078;42.544;22.966;2023-08-08T03:11:39;93894.75;;;14.97;100.00
10079;BME280;5078;42.544;22.966;2023-08-08T03:14:07;93894.53;;;14.92;100.00
10079;BME280;5078;42.544;22.966;2023-08-08T03:16:33;93906.00;;;14.73;100.00
10079;BME280;5078;42.544;22.966;2023-08-08T03:19:00;93904.41;;;14.92;100.00
10079;BME280;5078;42.544;22.966;2023-08-08T03:21:27;93907.66;;;14.80;100.00
10079;BME280;5078;42.544;22.966;2023-08-08T03:23:53;93925.13;;;14.83;100.00
10079;BME280;5078;42.544;22.966;2023-08-08T03:26:21;93923.94;;;14.99;100.00
10079;BME280;5078;42.544;22.966;2023-08-08T03:28:48;93922.91;;;14.93;100.00
10079;BME280;5078;42.544;22.966;2023-08-08T03:31:18;93914.41;;;14.76;100.00
10079;BME280;5078;42.544;22.966;2023-08-08T03:33:45;93912.59;;;14.90;100.00
10079;BME280;5078;42.544;22.966;2023-08-08T03:36:13;93925.34;;;14.88;100.00
10079;BME280;5078;42.544;22.966;2023-08-08T03:38:39;93920.03;;;15.01;100.00
10079;BME280;5078;42.544;22.966;2023-08-08T03:41:09;93920.19;;;14.86;100.00
10079;BME280;5078;42.544;22.966;2023-08-08T03:43:37;93920.00;;;14.88;100.00
10079;BME280;5078;42.544;22.966;2023-08-08T03:46:04;93928.88;;;14.95;100.00
10079;BME280;5078;42.544;22.966;2023-08-08T03:48:31;93931.75;;;15.07;100.00
10079;BME280;5078;42.544;22.966;2023-08-08T03:50:58;93934.81;;;14.91;100.00
10079;BME280;5078;42.544;22.966;2023-08-08T03:53:24;93930.09;;;14.93;100.00
10079;BME280;5078;42.544;22.966;2023-08-08T03:55:51;93927.22;;;15.01;100.00
10079;BME280;5078;42.544;22.966;2023-08-08T03:58:18;93936.47;;;14.98;100.00
10079;BME280;5078;42.544;22.966;2023-08-08T04:00:46;93950.28;;;15.22;100.00
10079;BME280;5078;42.544;22.966;2023-08-08T04:03:13;93939.34;;;15.10;100.00
10079;BME280;5078;42.544;22.966;2023-08-08T04:05:40;93950.00;;;14.97;100.00
10079;BME280;5078;42.544;22.966;2023-08-08T04:08:06;93946.47;;;14.89;100.00
10079;BME280;5078;42.544;22.966;2023-08-08T04:10:33;93947.75;;;14.94;100.00
10079;BME280;5078;42.544;22.966;2023-08-08T04:13:00;93947.38;;;15.03;100.00
10079;BME280;5078;42.544;22.966;2023-08-08T04:15:27;93957.66;;;15.13;100.00
10079;BME280;5078;42.544;22.966;2023-08-08T04:17:55;93951.03;;;14.96;100.00
10079;BME280;5078;42.544;22.966;2023-08-08T04:20:22;93944.50;;;15.12;100.00
10079;BME280;5078;42.544;22.966;2023-08-08T04:22:49;93938.94;;;15.06;100.00
10079;BME280;5078;42.544;22.966;2023-08-08T04:25:15;93943.50;;;15.13;100.00
10079;BME280;5078;42.544;22.966;2023-08-08T04:27:42;93938.84;;;14.80;100.00
10079;BME280;5078;42.544;22.966;2023-08-08T04:30:09;93936.47;;;15.05;100.00
10079;BME280;5078;42.544;22.966;2023-08-08T04:32:36;93930.91;;;15.00;100.00
10079;BME280;5078;42.544;22.966;2023-08-08T04:35:05;93942.00;;;14.97;100.00
10079;BME280;5078;42.544;22.966;2023-08-08T04:37:31;93950.25;;;15.08;100.00
10079;BME280;5078;42.544;22.966;2023-08-08T04:39:58;93943.72;;;15.24;100.00
10079;BME280;5078;42.544;22.966;2023-08-08T04:42:25;93958.94;;;15.37;100.00
10079;BME280;5078;42.544;22.966;2023-08-08T04:44:52;93972.53;;;15.49;100.00
10079;BME280;5078;42.544;22.966;2023-08-08T04:47:18;93978.38;;;15.72;100.00
10079;BME280;5078;42.544;22.966;2023-08-08T04:49:45;93982.25;;;16.43;100.00
10079;BME280;5078;42.544;22.966;2023-08-08T04:52:13;93983.38;;;16.87;100.00
10079;BME280;5078;42.544;22.966;2023-08-08T04:54:40;93979.91;;;16.73;100.00
10079;BME280;5078;42.544;22.966;2023-08-08T04:57:07;93992.53;;;16.46;100.00
10079;BME280;5078;42.544;22.966;2023-08-08T04:59:33;93999.94;;;16.24;100.00
10079;BME280;5078;42.544;22.966;2023-08-08T05:02:00;93998.72;;;15.87;100.00
10079;BME280;5078;42.544;22.966;2023-08-08T05:04:27;93998.09;;;15.91;100.00
10079;BME280;5078;42.544;22.966;2023-08-08T05:06:53;93998.94;;;15.92;100.00
10079;BME280;5078;42.544;22.966;2023-08-08T05:09:21;94011.22;;;16.59;100.00
10079;BME280;5078;42.544;22.966;2023-08-08T05:11:51;94009.59;;;17.30;100.00
10079;BME280;5078;42.544;22.966;2023-08-08T05:14:18;94021.13;;;17.69;100.00
10079;BME280;5078;42.544;22.966;2023-08-08T05:16:45;94028.22;;;17.95;100.00
10079;BME280;5078;42.544;22.966;2023-08-08T05:19:12;94032.56;;;17.58;100.00
10079;BME280;5078;42.544;22.966;2023-08-08T05:21:39;94032.56;;;17.58;100.00
10079;BME280;5078;42.544;22.966;2023-08-08T05:24:06;94035.94;;;17.78;100.00
10079;BME280;5078;42.544;22.966;2023-08-08T05:26:34;94029.25;;;17.56;100.00
10079;BME280;5078;42.544;22.966;2023-08-08T05:29:01;94032.25;;;18.11;100.00
10079;BME280;5078;42.544;22.966;2023-08-08T05:31:27;94032.25;;;18.36;100.00
10079;BME280;5078;42.544;22.966;2023-08-08T05:33:54;94043.75;;;18.18;100.00
10079;BME280;5078;42.544;22.966;2023-08-08T05:36:21;94042.22;;;18.29;100.00
10079;BME280;5078;42.544;22.966;2023-08-08T05:38:49;94057.78;;;17.88;100.00
10079;BME280;5078;42.544;22.966;2023-08-08T05:41:15;94058.06;;;17.67;100.00
10079;BME280;5078;42.544;22.966;2023-08-08T05:43:43;94059.97;;;17.08;100.00
10079;BME280;5078;42.544;22.966;2023-08-08T05:46:10;94068.63;;;17.03;100.00
10079;BME280;5078;42.544;22.966;2023-08-08T05:48:37;94061.88;;;16.81;100.00
10079;BME280;5078;42.544;22.966;2023-08-08T05:51:03;94074.31;;;17.34;100.00
10079;BME280;5078;42.544;22.966;2023-08-08T05:53:31;94075.63;;;18.08;100.00
10079;BME280;5078;42.544;22.966;2023-08-08T05:55:58;94080.25;;;18.51;100.00
10079;BME280;5078;42.544;22.966;2023-08-08T05:58:24;94071.88;;;18.09;100.00
10079;BME280;5078;42.544;22.966;2023-08-08T06:00:53;94079.09;;;18.40;100.00
10079;BME280;5078;42.544;22.966;2023-08-08T06:03:19;94083.41;;;18.66;100.00
10079;BME280;5078;42.544;22.966;2023-08-08T06:05:46;94092.22;;;19.42;92.70
10079;BME280;5078;42.544;22.966;2023-08-08T06:08:13;94086.59;;;19.62;90.25
10079;BME280;5078;42.544;22.966;2023-08-08T06:10:41;94086.34;;;19.64;87.01
10079;BME280;5078;42.544;22.966;2023-08-08T06:13:08;94086.06;;;19.53;91.70
10079;BME280;5078;42.544;22.966;2023-08-08T06:15:35;94091.78;;;20.24;81.92
10079;BME280;5078;42.544;22.966;2023-08-08T06:18:04;94091.72;;;20.42;77.46
10079;BME280;5078;42.544;22.966;2023-08-08T06:20:31;94085.03;;;20.87;74.19
10079;BME280;5078;42.544;22.966;2023-08-08T06:22:58;94082.91;;;20.77;74.20
10079;BME280;5078;42.544;22.966;2023-08-08T06:25:24;94092.63;;;20.24;75.47
10079;BME280;5078;42.544;22.966;2023-08-08T06:27:51;94089.34;;;21.11;65.87
10079;BME280;5078;42.544;22.966;2023-08-08T06:30:18;94088.97;;;20.61;65.65
10079;BME280;5078;42.544;22.966;2023-08-08T06:32:45;94090.41;;;21.22;63.55
10079;BME280;5078;42.544;22.966;2023-08-08T06:35:13;94075.97;;;21.52;59.70
10079;BME280;5078;42.544;22.966;2023-08-08T06:37:42;94081.94;;;21.30;55.25
10079;BME280;5078;42.544;22.966;2023-08-08T06:40:10;94078.31;;;21.13;54.39
10079;BME280;5078;42.544;22.966;2023-08-08T06:42:38;94079.47;;;21.29;54.02
10079;BME280;5078;42.544;22.966;2023-08-08T06:45:05;94066.25;;;21.27;53.83
10079;BME280;5078;42.544;22.966;2023-08-08T06:47:32;94087.25;;;21.89;52.85
10079;BME280;5078;42.544;22.966;2023-08-08T06:49:59;94078.88;;;21.62;52.14
10079;BME280;5078;42.544;22.966;2023-08-08T06:52:27;94079.34;;;21.36;52.57
10079;BME280;5078;42.544;22.966;2023-08-08T06:54:54;94087.34;;;20.83;54.71
10079;BME280;5078;42.544;22.966;2023-08-08T06:57:20;94087.94;;;21.32;53.36
10079;BME280;5078;42.544;22.966;2023-08-08T06:59:47;94099.81;;;20.54;53.19
10079;BME280;5078;42.544;22.966;2023-08-08T07:02:16;94076.00;;;20.28;56.44
10079;BME280;5078;42.544;22.966;2023-08-08T07:04:43;94081.25;;;21.35;53.90
10079;BME280;5078;42.544;22.966;2023-08-08T07:07:09;94081.34;;;21.28;53.30
10079;BME280;5078;42.544;22.966;2023-08-08T07:09:37;94086.78;;;22.21;50.52
10079;BME280;5078;42.544;22.966;2023-08-08T07:12:05;94076.91;;;21.86;52.25
10079;BME280;5078;42.544;22.966;2023-08-08T07:14:31;94067.97;;;22.43;51.32
10079;BME280;5078;42.544;22.966;2023-08-08T07:16:58;94073.25;;;23.00;48.80
10079;BME280;5078;42.544;22.966;2023-08-08T07:19:25;94081.91;;;22.35;51.12
10079;BME280;5078;42.544;22.966;2023-08-08T07:21:52;94075.75;;;22.11;53.07
10079;BME280;5078;42.544;22.966;2023-08-08T07:24:19;94083.69;;;21.89;51.41
10079;BME280;5078;42.544;22.966;2023-08-08T07:26:47;94082.28;;;21.34;52.39
10079;BME280;5078;42.544;22.966;2023-08-08T07:29:13;94076.41;;;21.49;52.47
10079;BME280;5078;42.544;22.966;2023-08-08T07:31:40;94087.13;;;21.32;51.50
10079;BME280;5078;42.544;22.966;2023-08-08T07:34:07;94084.13;;;21.69;51.53
10079;BME280;5078;42.544;22.966;2023-08-08T07:36:33;94088.22;;;21.71;51.89
10079;BME280;5078;42.544;22.966;2023-08-08T07:39:00;94087.72;;;20.03;59.90
10079;BME280;5078;42.544;22.966;2023-08-08T07:41:29;94081.34;;;21.28;57.03
10079;BME280;5078;42.544;22.966;2023-08-08T07:43:57;94083.03;;;20.82;57.05
10079;BME280;5078;42.544;22.966;2023-08-08T07:46:24;94081.97;;;21.42;55.56
10079;BME280;5078;42.544;22.966;2023-08-08T07:48:51;94072.97;;;22.51;51.46
10079;BME280;5078;42.544;22.966;2023-08-08T07:51:17;94080.78;;;21.90;51.66
10079;BME280;5078;42.544;22.966;2023-08-08T07:53:44;94084.75;;;21.59;50.58
10079;BME280;5078;42.544;22.966;2023-08-08T07:56:11;94084.66;;;20.83;54.44
10079;BME280;5078;42.544;22.966;2023-08-08T07:58:38;94089.53;;;20.21;56.51
10079;BME280;5078;42.544;22.966;2023-08-08T08:01:06;94091.72;;;20.42;58.43
10079;BME280;5078;42.544;22.966;2023-08-08T08:03:32;94089.13;;;20.89;58.25
10079;BME280;5078;42.544;22.966;2023-08-08T08:05:59;94057.41;;;21.56;53.60
10079;BME280;5078;42.544;22.966;2023-08-08T08:08:26;94073.34;;;22.26;51.10
10079;BME280;5078;42.544;22.966;2023-08-08T08:10:53;94087.69;;;21.58;53.43
10079;BME280;5078;42.544;22.966;2023-08-08T08:13:19;94085.00;;;20.99;55.58
10079;BME280;5078;42.544;22.966;2023-08-08T08:15:46;94095.28;;;20.55;54.89
10079;BME280;5078;42.544;22.966;2023-08-08T08:18:14;94091.69;;;20.73;55.92
10079;BME280;5078;42.544;22.966;2023-08-08T08:20:42;94095.34;;;21.02;54.09
10079;BME280;5078;42.544;22.966;2023-08-08T08:23:09;94092.63;;;21.89;51.75
10079;BME280;5078;42.544;22.966;2023-08-08T08:25:36;94088.69;;;21.68;50.78
10079;BME280;5078;42.544;22.966;2023-08-08T08:28:03;94094.13;;;21.97;50.50
10079;BME280;5078;42.544;22.966;2023-08-08T08:30:30;94093.88;;;21.58;49.57
10079;BME280;5078;42.544;22.966;2023-08-08T08:32:57;94090.09;;;21.71;49.20
10079;BME280;5078;42.544;22.966;2023-08-08T08:35:25;94083.78;;;22.51;48.24
10079;BME280;5078;42.544;22.966;2023-08-08T08:37:51;94088.31;;;22.63;44.24
10079;BME280;5078;42.544;22.966;2023-08-08T08:40:18;94084.88;;;23.18;44.59
10079;BME280;5078;42.544;22.966;2023-08-08T08:42:47;94090.19;;;22.96;44.76
10079;BME280;5078;42.544;22.966;2023-08-08T08:45:16;94080.78;;;23.54;42.98
10079;BME280;5078;42.544;22.966;2023-08-08T08:47:46;94083.97;;;22.95;44.00
10079;BME280;5078;42.544;22.966;2023-08-08T08:50:14;94087.50;;;22.62;46.06
10079;BME280;5078;42.544;22.966;2023-08-08T08:52:43;94088.31;;;21.76;51.27
10079;BME280;5078;42.544;22.966;2023-08-08T08:55:10;94087.16;;;22.58;47.43
10079;BME280;5078;42.544;22.966;2023-08-08T08:57:37;94055.25;;;21.98;49.19
10079;BME280;5078;42.544;22.966;2023-08-08T09:00:06;94069.91;;;22.59;46.71
10079;BME280;5078;42.544;22.966;2023-08-08T09:02:33;94072.31;;;21.46;49.70
10079;BME280;5078;42.544;22.966;2023-08-08T09:05:00;94068.47;;;21.83;48.64
10079;BME280;5078;42.544;22.966;2023-08-08T09:07:29;94068.97;;;22.08;47.10
10079;BME280;5078;42.544;22.966;2023-08-08T09:09:59;94059.97;;;22.48;45.92
10079;BME280;5078;42.544;22.966;2023-08-08T09:12:26;94070.53;;;22.04;47.69
10079;BME280;5078;42.544;22.966;2023-08-08T09:14:55;94055.38;;;22.66;46.70
10079;BME280;5078;42.544;22.966;2023-08-08T09:17:24;94076.50;;;22.35;45.80
10079;BME280;5078;42.544;22.966;2023-08-08T09:19:53;94069.50;;;23.62;43.36
10079;BME280;5078;42.544;22.966;2023-08-08T09:22:20;94054.88;;;24.29;42.58
10079;BME280;5078;42.544;22.966;2023-08-08T09:24:49;94072.06;;;22.96;45.03
10079;BME280;5078;42.544;22.966;2023-08-08T09:27:17;94071.44;;;22.55;46.37
10079;BME280;5078;42.544;22.966;2023-08-08T09:29:44;94066.44;;;22.81;46.09
10079;BME280;5078;42.544;22.966;2023-08-08T09:32:12;94070.75;;;23.33;43.83
10079;BME280;5078;42.544;22.966;2023-08-08T09:34:40;94071.44;;;22.89;44.56
10079;BME280;5078;42.544;22.966;2023-08-08T09:37:07;94076.53;;;23.02;44.74
10079;BME280;5078;42.544;22.966;2023-08-08T09:39:35;94076.34;;;23.26;43.48
10079;BME280;5078;42.544;22.966;2023-08-08T09:42:03;94071.22;;;23.46;42.33
10079;BME280;5078;42.544;22.966;2023-08-08T09:44:31;94068.84;;;23.33;42.99
10079;BME280;5078;42.544;22.966;2023-08-08T09:47:00;94078.00;;;23.10;42.94
10079;BME280;5078;42.544;22.966;2023-08-08T09:49:28;94083.31;;;22.54;43.37
10079;BME280;5078;42.544;22.966;2023-08-08T09:51:58;94092.41;;;21.27;46.28
10079;BME280;5078;42.544;22.966;2023-08-08T09:54:25;94063.19;;;21.24;47.44
10079;BME280;5078;42.544;22.966;2023-08-08T09:56:53;94087.81;;;21.04;47.80
10079;BME280;5078;42.544;22.966;2023-08-08T09:59:20;94086.13;;;22.02;46.74
10079;BME280;5078;42.544;22.966;2023-08-08T10:01:50;94087.28;;;22.06;46.30
10079;BME280;5078;42.544;22.966;2023-08-08T10:04:17;94094.34;;;21.31;47.32
10079;BME280;5078;42.544;22.966;2023-08-08T10:06:44;94099.19;;;21.53;47.23
10079;BME280;5078;42.544;22.966;2023-08-08T10:09:11;94099.44;;;21.92;46.80
10079;BME280;5078;42.544;22.966;2023-08-08T10:11:39;94099.78;;;21.95;47.90
10079;BME280;5078;42.544;22.966;2023-08-08T10:14:09;94087.13;;;22.25;47.02
10079;BME280;5078;42.544;22.966;2023-08-08T10:16:36;94068.31;;;22.80;45.86
10079;BME280;5078;42.544;22.966;2023-08-08T10:19:05;94099.59;;;22.76;44.00
10079;BME280;5078;42.544;22.966;2023-08-08T10:21:33;94102.88;;;22.45;44.82
10079;BME280;5078;42.544;22.966;2023-08-08T10:24:02;94096.16;;;22.47;43.42
10079;BME280;5078;42.544;22.966;2023-08-08T10:26:29;94089.94;;;22.47;44.12
10079;BME280;5078;42.544;22.966;2023-08-08T10:28:58;94109.63;;;21.49;46.27
10079;BME280;5078;42.544;22.966;2023-08-08T10:31:25;94098.81;;;21.38;47.04
10079;BME280;5078;42.544;22.966;2023-08-08T10:34:01;94095.56;;;22.16;45.79
10079;BME280;5078;42.544;22.966;2023-08-08T10:39:21;94081.00;;;22.17;45.36
10079;BME280;5078;42.544;22.966;2023-08-08T10:41:49;94073.53;;;22.36;44.64
10079;BME280;5078;42.544;22.966;2023-08-08T10:44:23;94085.69;;;22.51;43.02
10079;BME280;5078;42.544;22.966;2023-08-08T10:46:51;94069.03;;;22.13;44.89
10079;BME280;5078;42.544;22.966;2023-08-08T10:49:18;94092.81;;;22.57;42.88
10079;BME280;5078;42.544;22.966;2023-08-08T10:51:49;94080.19;;;21.48;45.96
10079;BME280;5078;42.544;22.966;2023-08-08T10:54:19;94090.94;;;22.00;46.15
10079;BME280;5078;42.544;22.966;2023-08-08T10:56:50;94087.84;;;22.08;46.20
10079;BME280;5078;42.544;22.966;2023-08-08T10:59:18;94078.72;;;22.09;45.85
10079;BME280;5078;42.544;22.966;2023-08-08T11:01:46;94090.00;;;22.35;45.83
10079;BME280;5078;42.544;22.966;2023-08-08T11:04:15;94089.94;;;22.64;43.58
10079;BME280;5078;42.544;22.966;2023-08-08T11:06:42;94076.84;;;23.06;43.43
10079;BME280;5078;42.544;22.966;2023-08-08T11:09:09;94088.25;;;23.08;42.75
10079;BME280;5078;42.544;22.966;2023-08-08T11:11:37;94065.47;;;21.96;44.73
10079;BME280;5078;42.544;22.966;2023-08-08T11:14:13;94079.03;;;22.25;44.75
10079;BME280;5078;42.544;22.966;2023-08-08T11:16:40;94076.75;;;22.50;45.00
10079;BME280;5078;42.544;22.966;2023-08-08T11:19:08;94090.22;;;22.79;43.75
10079;BME280;5078;42.544;22.966;2023-08-08T11:21:35;94073.41;;;21.74;44.19
10079;BME280;5078;42.544;22.966;2023-08-08T11:24:04;94076.25;;;22.08;45.45
10079;BME280;5078;42.544;22.966;2023-08-08T11:26:31;94078.06;;;21.90;45.27
10079;BME280;5078;42.544;22.966;2023-08-08T11:28:59;94071.59;;;22.32;44.76
10079;BME280;5078;42.544;22.966;2023-08-08T11:31:28;94082.16;;;22.50;44.34
10079;BME280;5078;42.544;22.966;2023-08-08T11:33:56;94082.06;;;21.59;45.22
10079;BME280;5078;42.544;22.966;2023-08-08T11:36:23;94087.09;;;21.56;44.73
10079;BME280;5078;42.544;22.966;2023-08-08T11:38:50;94072.34;;;22.15;44.51
10079;BME280;5078;42.544;22.966;2023-08-08T11:41:19;94074.88;;;21.93;45.44
10079;BME280;5078;42.544;22.966;2023-08-08T11:43:48;94067.06;;;22.09;45.82
10079;BME280;5078;42.544;22.966;2023-08-08T11:46:17;94068.84;;;22.03;46.65
10079;BME280;5078;42.544;22.966;2023-08-08T11:48:47;94065.56;;;21.84;46.81
10079;BME280;5078;42.544;22.966;2023-08-08T11:51:15;94063.91;;;22.57;44.74
10079;BME280;5078;42.544;22.966;2023-08-08T11:53:48;94058.72;;;22.56;45.04
10079;BME280;5078;42.544;22.966;2023-08-08T11:56:17;94050.69;;;21.98;44.77
10079;BME280;5078;42.544;22.966;2023-08-08T11:58:44;94042.94;;;22.65;43.40
10079;BME280;5078;42.544;22.966;2023-08-08T12:01:10;94059.47;;;22.85;44.89
10079;BME280;5078;42.544;22.966;2023-08-08T12:03:39;94047.19;;;22.94;43.54
10079;BME280;5078;42.544;22.966;2023-08-08T12:06:12;94054.31;;;22.33;45.62
10079;BME280;5078;42.544;22.966;2023-08-08T12:08:41;94047.41;;;21.96;46.88
10079;BME280;5078;42.544;22.966;2023-08-08T12:11:08;94043.34;;;22.11;46.02
10079;BME280;5078;42.544;22.966;2023-08-08T12:13:37;94036.47;;;22.82;43.85
10079;BME280;5078;42.544;22.966;2023-08-08T12:16:05;94044.94;;;22.24;44.80
10079;BME280;5078;42.544;22.966;2023-08-08T12:18:32;94034.22;;;21.71;45.84
10079;BME280;5078;42.544;22.966;2023-08-08T12:21:00;94033.47;;;21.88;46.44
10079;BME280;5078;42.544;22.966;2023-08-08T12:23:29;94026.19;;;22.17;45.13
10079;BME280;5078;42.544;22.966;2023-08-08T12:25:57;94025.41;;;22.50;44.60
10079;BME280;5078;42.544;22.966;2023-08-08T12:28:23;94021.56;;;22.46;45.01
10079;BME280;5078;42.544;22.966;2023-08-08T12:30:50;94027.03;;;22.51;44.93
10079;BME280;5078;42.544;22.966;2023-08-08T12:33:17;94011.25;;;21.97;44.07
10079;BME280;5078;42.544;22.966;2023-08-08T12:35:44;94010.66;;;22.58;44.14
10079;BME280;5078;42.544;22.966;2023-08-08T12:38:11;94026.22;;;22.85;44.44
10079;BME280;5078;42.544;22.966;2023-08-08T12:40:39;94019.75;;;22.69;45.34
10079;BME280;5078;42.544;22.966;2023-08-08T12:43:05;94008.34;;;23.00;44.13
10079;BME280;5078;42.544;22.966;2023-08-08T12:45:32;94015.41;;;22.68;43.85
10079;BME280;5078;42.544;22.966;2023-08-08T12:47:59;94015.09;;;22.64;45.35
10079;BME280;5078;42.544;22.966;2023-08-08T12:50:26;94006.44;;;22.16;45.07
10079;BME280;5078;42.544;22.966;2023-08-08T12:52:53;94014.84;;;22.03;46.25
10079;BME280;5078;42.544;22.966;2023-08-08T12:55:20;94005.44;;;22.34;45.42
10079;BME280;5078;42.544;22.966;2023-08-08T12:57:49;93995.03;;;22.26;45.50
10079;BME280;5078;42.544;22.966;2023-08-08T13:00:16;94001.34;;;22.03;45.61